Hugh R. Sharp — WDC9608 — position and weather

sailwx.info

Track history (hours):
 
Tides and Currents Weather Stations Pressure Air Temp Water Temp Dewpoint Dewpoint Depression Visibility Wind Speed Wind Dir Waves Ship Positions

Oceanographic research ship Hugh R. Sharp (USA)

Ship's website: http://www.ceoe.udel.edu/marine/rvSharp.shtml

Detailed information on ship capabilities available from University of Delaware's Ocean Information Center.

Owner: Warrior & yGulf Navigation Compan, Chickasaw, AL. More information available from US FCC via Universal Licensing System and Coast Guard Vessel Documentation Center.

Last reported at 2017-Oct-16 13:46 UTC. Time now 2017-Oct-17 15:11 UTC.
Position N 38°47' W 075°10'.

Length 40 m; draft 4 m.

Type: Other ship. MMSI: 367063060.

Date/timePositionNaut miles runAvg speedWind from/ knotsBaromVisibWave heightAir tempDewpointWater temp
2017-Oct-16 13:46N 38°47' W 075°10'0 0.0
2017-Oct-16 13:22N 38°47' W 075°10'0 0.0
2017-Oct-16 12:58N 38°47' W 075°10'0 0.0
2017-Oct-16 12:28N 38°47' W 075°10'0 0.0
2017-Oct-16 11:58N 38°47' W 075°10'0 0.0
2017-Oct-16 11:28N 38°47' W 075°10'0 0.0
2017-Oct-16 10:55N 38°47' W 075°10'0 0.0
2017-Oct-16 10:25N 38°47' W 075°10'0 0.0
2017-Oct-16 09:55N 38°47' W 075°10'0 0.0
2017-Oct-16 08:28N 38°47' W 075°10'0 0.0
2017-Oct-16 03:10N 38°47' W 075°10'0 0.0
2017-Oct-16 02:10N 38°47' W 075°10'0 0.0
2017-Oct-16 01:55N 38°47' W 075°10'0 0.0
2017-Oct-16 01:22N 38°47' W 075°10'0 0.0
2017-Oct-16 00:34N 38°47' W 075°10'0 0.0
2017-Oct-15 16:39N 38°47' W 075°10'0 0.0
2017-Oct-15 15:21N 38°47' W 075°10'0 0.0
2017-Oct-15 14:48N 38°47' W 075°10'0 0.0
2017-Oct-15 14:00N 38°47' W 075°10'0 0.0
2017-Oct-15 13:27N 38°47' W 075°10'0 0.0
2017-Oct-15 12:57N 38°47' W 075°10'0 0.0
2017-Oct-15 12:27N 38°47' W 075°10'0 0.0
2017-Oct-15 11:54N 38°47' W 075°10'0 0.0
2017-Oct-15 10:42N 38°47' W 075°10'0 0.0
2017-Oct-15 09:36N 38°47' W 075°10'0 0.0
2017-Oct-15 09:24N 38°47' W 075°10'0 0.0
2017-Oct-15 05:09N 38°47' W 075°10'0 0.0
2017-Oct-15 04:54N 38°47' W 075°10'0 0.0
2017-Oct-15 04:27N 38°47' W 075°10'0 0.0
2017-Oct-15 02:51N 38°47' W 075°10'0 0.0
2017-Oct-15 02:21N 38°47' W 075°10'0 0.0
2017-Oct-15 02:00N 38°47' W 075°10'0 0.0
2017-Oct-15 01:24N 38°47' W 075°10'0 0.0
2017-Oct-15 00:39N 38°47' W 075°10'0 0.0
2017-Oct-15 00:30N 38°47' W 075°10'0 0.0
2017-Oct-15 00:00N 38°47' W 075°10'0 0.0
2017-Oct-14 23:27N 38°47' W 075°10'0 0.0
2017-Oct-14 22:57N 38°47' W 075°10'0 0.0
2017-Oct-14 21:30N 38°47' W 075°10'0 0.0
2017-Oct-14 21:00N 38°47' W 075°10'0 0.0
2017-Oct-14 20:27N 38°47' W 075°10'0 0.0
2017-Oct-14 19:36N 38°47' W 075°10'0 0.0
2017-Oct-14 19:09N 38°47' W 075°10'0 0.0
2017-Oct-14 19:00N 38°47' W 075°10'0 0.0
2017-Oct-14 18:27N 38°47' W 075°10'0 0.0
2017-Oct-14 17:15N 38°47' W 075°10'0 0.0
2017-Oct-14 16:57N 38°47' W 075°10'0 0.0
2017-Oct-14 16:30N 38°47' W 075°10'0 0.0
2017-Oct-14 15:57N 38°47' W 075°10'0 0.0
2017-Oct-14 15:27N 38°47' W 075°10'0 0.0
2017-Oct-14 13:03N 38°47' W 075°10'0 0.0
2017-Oct-14 08:44N 38°47' W 075°10'0 0.0
2017-Oct-14 07:23N 38°47' W 075°10'0 0.0
2017-Oct-14 04:11N 38°47' W 075°10'0 0.0
2017-Oct-13 09:38N 38°47' W 075°10'0 0.0
2017-Oct-13 07:59N 38°47' W 075°10'2 3.4
2017-Oct-13 07:30N 38°49' W 075°08'0 0.7
2017-Oct-13 06:56N 38°49' W 075°08'0 0.4
2017-Oct-13 05:45N 38°49' W 075°08'0 0.5
2017-Oct-13 05:19N 38°48' W 075°09'0 0.5
2017-Oct-13 04:57N 38°48' W 075°09'0 0.2
2017-Oct-13 04:24N 38°48' W 075°09'1 1.3
2017-Oct-13 04:00N 38°48' W 075°08'0 0.2
2017-Oct-13 02:35N 38°49' W 075°08'1 4.4
2017-Oct-13 02:25N 38°48' W 075°07'0 0.4
2017-Oct-13 02:00N 38°48' W 075°08'1 0.4
2017-Oct-13 00:33N 38°48' W 075°08'0 0.6
2017-Oct-13 00:16N 38°48' W 075°09'0 0.2
2017-Oct-12 23:14N 38°48' W 075°08'0 1.0
2017-Oct-12 23:00N 38°48' W 075°08'2 1.1
2017-Oct-12 21:09N 38°49' W 075°06'3 1.5
2017-Oct-12 19:27N 38°48' W 075°09'2 0.8
2017-Oct-12 16:38N 38°49' W 075°07'0 0.1
2017-Oct-12 13:17N 38°49' W 075°06'0 0.0
2017-Oct-12 12:13N 38°49' W 075°06'0 0.2
2017-Oct-12 12:00N 38°49' W 075°06'0 0.2
2017-Oct-12 11:30N 38°49' W 075°06'1 2.7
2017-Oct-12 11:00N 38°48' W 075°08'1 2.0
2017-Oct-12 10:30N 38°49' W 075°07'0 0.8
2017-Oct-12 10:00N 38°49' W 075°06'43 8.7
2017-Oct-12 05:05N 38°58' W 074°12'1 9.1
2017-Oct-12 04:58N 38°58' W 074°11'4 9.2
2017-Oct-12 04:29N 38°59' W 074°05'5 9.3
2017-Oct-12 03:59N 39°00' W 073°60'8 9.3
2017-Oct-12 03:07N 39°02' W 073°50'1 9.5
2017-Oct-12 02:59N 39°02' W 073°48'5 9.4
2017-Oct-12 02:28N 39°04' W 073°42'4 9.5
2017-Oct-12 02:00N 39°05' W 073°37'5 9.5
2017-Oct-12 01:30N 39°06' W 073°31'6 9.6
2017-Oct-12 00:53N 39°08' W 073°23'4 9.5
2017-Oct-12 00:30N 39°08' W 073°19'23 9.2
2017-Oct-11 22:04N 39°14' W 072°51'2 9.1
2017-Oct-11 21:51N 39°15' W 072°48'3 5.8
2017-Oct-11 21:23N 39°16' W 072°45'0 0.6
2017-Oct-11 21:00N 39°16' W 072°44'1 0.2
2017-Oct-11 16:30N 39°15' W 072°43'25 0.7
2017-Oct-10 05:06N 39°24' W 073°14'33 7.0
2017-Oct-10 00:24N 39°37' W 073°53'3 6.5
2017-Oct-10 00:00N 39°37' W 073°56'3 6.7
2017-Oct-09 23:30N 39°39' W 073°60'3 6.8
2017-Oct-09 23:01N 39°40' W 074°04'2 4.5
2017-Oct-09 22:30N 39°39' W 074°07'3 5.3
2017-Oct-09 22:00N 39°37' W 074°08'3 5.3
2017-Oct-09 21:30N 39°34' W 074°09'3 5.4
2017-Oct-09 21:00N 39°32' W 074°11'1 1.1
2017-Oct-09 20:30N 39°32' W 074°10'2 4.5
2017-Oct-09 19:59N 39°34' W 074°08'2 4.3
2017-Oct-09 19:30N 39°35' W 074°07'2 4.0
2017-Oct-09 19:00N 39°37' W 074°05'2 4.0
2017-Oct-09 18:30N 39°39' W 074°04'2 4.2
2017-Oct-09 18:00N 39°41' W 074°03'2 4.6
2017-Oct-09 17:30N 39°43' W 074°03'1 1.2
2017-Oct-09 17:00N 39°43' W 074°03'3 5.1
2017-Oct-09 16:30N 39°41' W 074°05'3 5.0
2017-Oct-09 16:00N 39°39' W 074°06'3 5.3
2017-Oct-09 15:30N 39°36' W 074°08'1 2.4
2017-Oct-09 14:59N 39°35' W 074°09'2 3.1
2017-Oct-09 14:30N 39°37' W 074°08'2 3.6
2017-Oct-09 14:00N 39°38' W 074°07'2 3.9
2017-Oct-09 13:30N 39°39' W 074°05'2 3.9
2017-Oct-09 12:59N 39°41' W 074°03'4 7.8
2017-Oct-09 12:30N 39°40' W 073°58'3 6.3
2017-Oct-09 12:00N 39°39' W 073°54'2 4.6
2017-Oct-09 11:29N 39°38' W 073°51'2 4.7
2017-Oct-09 10:59N 39°37' W 073°49'2 4.8
2017-Oct-09 10:30N 39°35' W 073°46'2 4.9
2017-Oct-09 10:00N 39°34' W 073°44'3 6.9
2017-Oct-09 09:30N 39°32' W 073°40'4 7.7
2017-Oct-09 09:00N 39°30' W 073°36'4 7.7
2017-Oct-09 08:29N 39°28' W 073°31'4 7.6
2017-Oct-09 08:01N 39°27' W 073°27'4 7.7
2017-Oct-09 07:30N 39°25' W 073°22'4 7.6
2017-Oct-09 07:00N 39°23' W 073°18'4 7.4
2017-Oct-09 06:30N 39°22' W 073°14'4 8.0
2017-Oct-09 06:00N 39°20' W 073°09'4 8.3
2017-Oct-09 05:30N 39°18' W 073°04'4 8.1
2017-Oct-09 04:57N 39°16' W 072°59'4 8.1
2017-Oct-09 04:25N 39°14' W 072°54'4 8.1
2017-Oct-09 03:57N 39°13' W 072°49'5 0.3
2017-Oct-08 11:24N 39°16' W 072°45'2 1.6
2017-Oct-08 10:19N 39°15' W 072°43'2 3.7
2017-Oct-08 09:52N 39°16' W 072°44'2 4.9
2017-Oct-08 09:26N 39°14' W 072°43'3 5.7
2017-Oct-08 08:57N 39°12' W 072°41'5 1.1
2017-Oct-08 04:49N 39°16' W 072°45'0 0.9
2017-Oct-08 04:24N 39°16' W 072°45'3 3.1
2017-Oct-08 03:31N 39°13' W 072°46'0 0.8
2017-Oct-08 03:30N 39°13' W 072°46'1 1.4
2017-Oct-08 02:55N 39°13' W 072°47'1 2.0
2017-Oct-08 02:25N 39°13' W 072°46'1 1.4
2017-Oct-08 01:42N 39°14' W 072°47'1 3.2
2017-Oct-08 01:29N 39°13' W 072°47'1 1.2
2017-Oct-08 00:55N 39°12' W 072°47'1 3.2
2017-Oct-08 00:29N 39°14' W 072°47'2 1.4
2017-Oct-07 23:11N 39°14' W 072°45'2 3.7
2017-Oct-07 22:38N 39°16' W 072°45'1 4.6
2017-Oct-07 22:27N 39°16' W 072°44'1 1.9
2017-Oct-07 21:56N 39°15' W 072°44'1 0.2
2017-Oct-07 16:25N 39°14' W 072°44'2 1.2
2017-Oct-07 14:47N 39°12' W 072°45'0 1.4
2017-Oct-07 14:30N 39°12' W 072°46'2 4.3
2017-Oct-07 14:00N 39°14' W 072°44'2 3.5
2017-Oct-07 13:30N 39°16' W 072°43'0 0.3
2017-Oct-07 12:50N 39°15' W 072°43'0 0.4
2017-Oct-07 12:30N 39°15' W 072°43'1 1.3
2017-Oct-07 11:59N 39°15' W 072°43'0 0.3
2017-Oct-07 11:27N 39°15' W 072°43'0 0.5
2017-Oct-07 10:59N 39°15' W 072°43'2 2.9
2017-Oct-07 10:25N 39°17' W 072°44'2 3.6
2017-Oct-07 09:59N 39°15' W 072°43'2 4.3
2017-Oct-07 09:30N 39°13' W 072°42'2 3.6
2017-Oct-07 08:55N 39°12' W 072°40'4 8.0
2017-Oct-07 08:29N 39°09' W 072°38'1 1.1
2017-Oct-07 08:00N 39°08' W 072°38'1 1.6
2017-Oct-07 07:28N 39°09' W 072°36'0 1.0
2017-Oct-07 07:00N 39°09' W 072°36'0 0.7
2017-Oct-07 06:27N 39°09' W 072°36'1 1.6
2017-Oct-07 05:52N 39°10' W 072°37'1 1.4
2017-Oct-07 05:25N 39°09' W 072°36'0 0.1
2017-Oct-07 04:58N 39°09' W 072°36'2 4.2
2017-Oct-07 04:24N 39°11' W 072°39'5 6.6
2017-Oct-07 03:35N 39°14' W 072°44'0 5.5
2017-Oct-07 03:30N 39°14' W 072°45'1 1.0
2017-Oct-07 02:59N 39°15' W 072°45'2 4.0
2017-Oct-07 02:22N 39°16' W 072°43'4 2.8
2017-Oct-07 00:55N 39°13' W 072°45'2 3.7
2017-Oct-07 00:26N 39°14' W 072°44'1 1.8
2017-Oct-06 23:55N 39°15' W 072°44'0 0.1
2017-Oct-06 23:27N 39°15' W 072°44'0 0.1
2017-Oct-06 19:36N 39°15' W 072°43'0 3.6
2017-Oct-06 19:29N 39°15' W 072°44'1 0.3
2017-Oct-06 16:32N 39°15' W 072°43'1 5.8
2017-Oct-06 16:24N 39°15' W 072°43'0 0.7
2017-Oct-06 15:51N 39°15' W 072°44'0 0.5
2017-Oct-06 15:16N 39°15' W 072°44'  
Track history (hours):
 
Tides and Currents Weather Stations Pressure Air Temp Water Temp Dewpoint Dewpoint Depression Visibility Wind Speed Wind Dir Waves Ship Positions

Oceanographic research ship Hugh R. Sharp (USA)

Ship's website: http://www.ceoe.udel.edu/marine/rvSharp.shtml

Detailed information on ship capabilities available from University of Delaware's Ocean Information Center.

Owner: Warrior & yGulf Navigation Compan, Chickasaw, AL. More information available from US FCC via Universal Licensing System and Coast Guard Vessel Documentation Center.

Last reported at 2017-Oct-16 13:46 UTC. Time now 2017-Oct-17 15:11 UTC.
Position N 38°47' W 075°10'.

Length 40 m; draft 4 m.

Type: Other ship. MMSI: 367063060.

Date/timePositionNaut miles runAvg speedWind from/ knotsBaromVisibWave heightAir tempDewpointWater temp
2017-Oct-16 13:46N 38°47' W 075°10'0 0.0
2017-Oct-16 13:22N 38°47' W 075°10'0 0.0
2017-Oct-16 12:58N 38°47' W 075°10'0 0.0
2017-Oct-16 12:28N 38°47' W 075°10'0 0.0
2017-Oct-16 11:58N 38°47' W 075°10'0 0.0
2017-Oct-16 11:28N 38°47' W 075°10'0 0.0
2017-Oct-16 10:55N 38°47' W 075°10'0 0.0
2017-Oct-16 10:25N 38°47' W 075°10'0 0.0
2017-Oct-16 09:55N 38°47' W 075°10'0 0.0
2017-Oct-16 08:28N 38°47' W 075°10'0 0.0
2017-Oct-16 03:10N 38°47' W 075°10'0 0.0
2017-Oct-16 02:10N 38°47' W 075°10'0 0.0
2017-Oct-16 01:55N 38°47' W 075°10'0 0.0
2017-Oct-16 01:22N 38°47' W 075°10'0 0.0
2017-Oct-16 00:34N 38°47' W 075°10'0 0.0
2017-Oct-15 16:39N 38°47' W 075°10'0 0.0
2017-Oct-15 15:21N 38°47' W 075°10'0 0.0
2017-Oct-15 14:48N 38°47' W 075°10'0 0.0
2017-Oct-15 14:00N 38°47' W 075°10'0 0.0
2017-Oct-15 13:27N 38°47' W 075°10'0 0.0
2017-Oct-15 12:57N 38°47' W 075°10'0 0.0
2017-Oct-15 12:27N 38°47' W 075°10'0 0.0
2017-Oct-15 11:54N 38°47' W 075°10'0 0.0
2017-Oct-15 10:42N 38°47' W 075°10'0 0.0
2017-Oct-15 09:36N 38°47' W 075°10'0 0.0
2017-Oct-15 09:24N 38°47' W 075°10'0 0.0
2017-Oct-15 05:09N 38°47' W 075°10'0 0.0
2017-Oct-15 04:54N 38°47' W 075°10'0 0.0
2017-Oct-15 04:27N 38°47' W 075°10'0 0.0
2017-Oct-15 02:51N 38°47' W 075°10'0 0.0
2017-Oct-15 02:21N 38°47' W 075°10'0 0.0
2017-Oct-15 02:00N 38°47' W 075°10'0 0.0
2017-Oct-15 01:24N 38°47' W 075°10'0 0.0
2017-Oct-15 00:39N 38°47' W 075°10'0 0.0
2017-Oct-15 00:30N 38°47' W 075°10'0 0.0
2017-Oct-15 00:00N 38°47' W 075°10'0 0.0
2017-Oct-14 23:27N 38°47' W 075°10'0 0.0
2017-Oct-14 22:57N 38°47' W 075°10'0 0.0
2017-Oct-14 21:30N 38°47' W 075°10'0 0.0
2017-Oct-14 21:00N 38°47' W 075°10'0 0.0
2017-Oct-14 20:27N 38°47' W 075°10'0 0.0
2017-Oct-14 19:36N 38°47' W 075°10'0 0.0
2017-Oct-14 19:09N 38°47' W 075°10'0 0.0
2017-Oct-14 19:00N 38°47' W 075°10'0 0.0
2017-Oct-14 18:27N 38°47' W 075°10'0 0.0
2017-Oct-14 17:15N 38°47' W 075°10'0 0.0
2017-Oct-14 16:57N 38°47' W 075°10'0 0.0
2017-Oct-14 16:30N 38°47' W 075°10'0 0.0
2017-Oct-14 15:57N 38°47' W 075°10'0 0.0
2017-Oct-14 15:27N 38°47' W 075°10'0 0.0
2017-Oct-14 13:03N 38°47' W 075°10'0 0.0
2017-Oct-14 08:44N 38°47' W 075°10'0 0.0
2017-Oct-14 07:23N 38°47' W 075°10'0 0.0
2017-Oct-14 04:11N 38°47' W 075°10'0 0.0
2017-Oct-13 09:38N 38°47' W 075°10'0 0.0
2017-Oct-13 07:59N 38°47' W 075°10'2 3.4
2017-Oct-13 07:30N 38°49' W 075°08'0 0.7
2017-Oct-13 06:56N 38°49' W 075°08'0 0.4
2017-Oct-13 05:45N 38°49' W 075°08'0 0.5
2017-Oct-13 05:19N 38°48' W 075°09'0 0.5
2017-Oct-13 04:57N 38°48' W 075°09'0 0.2
2017-Oct-13 04:24N 38°48' W 075°09'1 1.3
2017-Oct-13 04:00N 38°48' W 075°08'0 0.2
2017-Oct-13 02:35N 38°49' W 075°08'1 4.4
2017-Oct-13 02:25N 38°48' W 075°07'0 0.4
2017-Oct-13 02:00N 38°48' W 075°08'1 0.4
2017-Oct-13 00:33N 38°48' W 075°08'0 0.6
2017-Oct-13 00:16N 38°48' W 075°09'0 0.2
2017-Oct-12 23:14N 38°48' W 075°08'0 1.0
2017-Oct-12 23:00N 38°48' W 075°08'2 1.1
2017-Oct-12 21:09N 38°49' W 075°06'3 1.5
2017-Oct-12 19:27N 38°48' W 075°09'2 0.8
2017-Oct-12 16:38N 38°49' W 075°07'0 0.1
2017-Oct-12 13:17N 38°49' W 075°06'0 0.0
2017-Oct-12 12:13N 38°49' W 075°06'0 0.2
2017-Oct-12 12:00N 38°49' W 075°06'0 0.2
2017-Oct-12 11:30N 38°49' W 075°06'1 2.7
2017-Oct-12 11:00N 38°48' W 075°08'1 2.0
2017-Oct-12 10:30N 38°49' W 075°07'0 0.8
2017-Oct-12 10:00N 38°49' W 075°06'43 8.7
2017-Oct-12 05:05N 38°58' W 074°12'1 9.1
2017-Oct-12 04:58N 38°58' W 074°11'4 9.2
2017-Oct-12 04:29N 38°59' W 074°05'5 9.3
2017-Oct-12 03:59N 39°00' W 073°60'8 9.3
2017-Oct-12 03:07N 39°02' W 073°50'1 9.5
2017-Oct-12 02:59N 39°02' W 073°48'5 9.4
2017-Oct-12 02:28N 39°04' W 073°42'4 9.5
2017-Oct-12 02:00N 39°05' W 073°37'5 9.5
2017-Oct-12 01:30N 39°06' W 073°31'6 9.6
2017-Oct-12 00:53N 39°08' W 073°23'4 9.5
2017-Oct-12 00:30N 39°08' W 073°19'23 9.2
2017-Oct-11 22:04N 39°14' W 072°51'2 9.1
2017-Oct-11 21:51N 39°15' W 072°48'3 5.8
2017-Oct-11 21:23N 39°16' W 072°45'0 0.6
2017-Oct-11 21:00N 39°16' W 072°44'1 0.2
2017-Oct-11 16:30N 39°15' W 072°43'25 0.7
2017-Oct-10 05:06N 39°24' W 073°14'33 7.0
2017-Oct-10 00:24N 39°37' W 073°53'3 6.5
2017-Oct-10 00:00N 39°37' W 073°56'3 6.7
2017-Oct-09 23:30N 39°39' W 073°60'3 6.8
2017-Oct-09 23:01N 39°40' W 074°04'2 4.5
2017-Oct-09 22:30N 39°39' W 074°07'3 5.3
2017-Oct-09 22:00N 39°37' W 074°08'3 5.3
2017-Oct-09 21:30N 39°34' W 074°09'3 5.4
2017-Oct-09 21:00N 39°32' W 074°11'1 1.1
2017-Oct-09 20:30N 39°32' W 074°10'2 4.5
2017-Oct-09 19:59N 39°34' W 074°08'2 4.3
2017-Oct-09 19:30N 39°35' W 074°07'2 4.0
2017-Oct-09 19:00N 39°37' W 074°05'2 4.0
2017-Oct-09 18:30N 39°39' W 074°04'2 4.2
2017-Oct-09 18:00N 39°41' W 074°03'2 4.6
2017-Oct-09 17:30N 39°43' W 074°03'1 1.2
2017-Oct-09 17:00N 39°43' W 074°03'3 5.1
2017-Oct-09 16:30N 39°41' W 074°05'3 5.0
2017-Oct-09 16:00N 39°39' W 074°06'3 5.3
2017-Oct-09 15:30N 39°36' W 074°08'1 2.4
2017-Oct-09 14:59N 39°35' W 074°09'2 3.1
2017-Oct-09 14:30N 39°37' W 074°08'2 3.6
2017-Oct-09 14:00N 39°38' W 074°07'2 3.9
2017-Oct-09 13:30N 39°39' W 074°05'2 3.9
2017-Oct-09 12:59N 39°41' W 074°03'4 7.8
2017-Oct-09 12:30N 39°40' W 073°58'3 6.3
2017-Oct-09 12:00N 39°39' W 073°54'2 4.6
2017-Oct-09 11:29N 39°38' W 073°51'2 4.7
2017-Oct-09 10:59N 39°37' W 073°49'2 4.8
2017-Oct-09 10:30N 39°35' W 073°46'2 4.9
2017-Oct-09 10:00N 39°34' W 073°44'3 6.9
2017-Oct-09 09:30N 39°32' W 073°40'4 7.7
2017-Oct-09 09:00N 39°30' W 073°36'4 7.7
2017-Oct-09 08:29N 39°28' W 073°31'4 7.6
2017-Oct-09 08:01N 39°27' W 073°27'4 7.7
2017-Oct-09 07:30N 39°25' W 073°22'4 7.6
2017-Oct-09 07:00N 39°23' W 073°18'4 7.4
2017-Oct-09 06:30N 39°22' W 073°14'4 8.0
2017-Oct-09 06:00N 39°20' W 073°09'4 8.3
2017-Oct-09 05:30N 39°18' W 073°04'4 8.1
2017-Oct-09 04:57N 39°16' W 072°59'4 8.1
2017-Oct-09 04:25N 39°14' W 072°54'4 8.1
2017-Oct-09 03:57N 39°13' W 072°49'5 0.3
2017-Oct-08 11:24N 39°16' W 072°45'2 1.6
2017-Oct-08 10:19N 39°15' W 072°43'2 3.7
2017-Oct-08 09:52N 39°16' W 072°44'2 4.9
2017-Oct-08 09:26N 39°14' W 072°43'3 5.7
2017-Oct-08 08:57N 39°12' W 072°41'5 1.1
2017-Oct-08 04:49N 39°16' W 072°45'0 0.9
2017-Oct-08 04:24N 39°16' W 072°45'3 3.1
2017-Oct-08 03:31N 39°13' W 072°46'0 0.8
2017-Oct-08 03:30N 39°13' W 072°46'1 1.4
2017-Oct-08 02:55N 39°13' W 072°47'1 2.0
2017-Oct-08 02:25N 39°13' W 072°46'1 1.4
2017-Oct-08 01:42N 39°14' W 072°47'1 3.2
2017-Oct-08 01:29N 39°13' W 072°47'1 1.2
2017-Oct-08 00:55N 39°12' W 072°47'1 3.2
2017-Oct-08 00:29N 39°14' W 072°47'2 1.4
2017-Oct-07 23:11N 39°14' W 072°45'2 3.7
2017-Oct-07 22:38N 39°16' W 072°45'1 4.6
2017-Oct-07 22:27N 39°16' W 072°44'1 1.9
2017-Oct-07 21:56N 39°15' W 072°44'1 0.2
2017-Oct-07 16:25N 39°14' W 072°44'2 1.2
2017-Oct-07 14:47N 39°12' W 072°45'0 1.4
2017-Oct-07 14:30N 39°12' W 072°46'2 4.3
2017-Oct-07 14:00N 39°14' W 072°44'2 3.5
2017-Oct-07 13:30N 39°16' W 072°43'0 0.3
2017-Oct-07 12:50N 39°15' W 072°43'0 0.4
2017-Oct-07 12:30N 39°15' W 072°43'1 1.3
2017-Oct-07 11:59N 39°15' W 072°43'0 0.3
2017-Oct-07 11:27N 39°15' W 072°43'0 0.5
2017-Oct-07 10:59N 39°15' W 072°43'2 2.9
2017-Oct-07 10:25N 39°17' W 072°44'2 3.6
2017-Oct-07 09:59N 39°15' W 072°43'2 4.3
2017-Oct-07 09:30N 39°13' W 072°42'2 3.6
2017-Oct-07 08:55N 39°12' W 072°40'4 8.0
2017-Oct-07 08:29N 39°09' W 072°38'1 1.1
2017-Oct-07 08:00N 39°08' W 072°38'1 1.6
2017-Oct-07 07:28N 39°09' W 072°36'0 1.0
2017-Oct-07 07:00N 39°09' W 072°36'0 0.7
2017-Oct-07 06:27N 39°09' W 072°36'1 1.6
2017-Oct-07 05:52N 39°10' W 072°37'1 1.4
2017-Oct-07 05:25N 39°09' W 072°36'0 0.1
2017-Oct-07 04:58N 39°09' W 072°36'2 4.2
2017-Oct-07 04:24N 39°11' W 072°39'5 6.6
2017-Oct-07 03:35N 39°14' W 072°44'0 5.5
2017-Oct-07 03:30N 39°14' W 072°45'1 1.0
2017-Oct-07 02:59N 39°15' W 072°45'2 4.0
2017-Oct-07 02:22N 39°16' W 072°43'4 2.8
2017-Oct-07 00:55N 39°13' W 072°45'2 3.7
2017-Oct-07 00:26N 39°14' W 072°44'1 1.8
2017-Oct-06 23:55N 39°15' W 072°44'0 0.1
2017-Oct-06 23:27N 39°15' W 072°44'0 0.1
2017-Oct-06 19:36N 39°15' W 072°43'0 3.6
2017-Oct-06 19:29N 39°15' W 072°44'1 0.3
2017-Oct-06 16:32N 39°15' W 072°43'1 5.8
2017-Oct-06 16:24N 39°15' W 072°43'0 0.7
2017-Oct-06 15:51N 39°15' W 072°44'0 0.5
2017-Oct-06 15:16N 39°15' W 072°44'  

Dump ship's entire track history